createdAt,value
2022-09-12T00:01:17.846Z,12.82
2022-09-12T00:03:45.795Z,12.80
2022-09-12T00:06:23.067Z,12.72
2022-09-12T00:08:54.631Z,12.65
2022-09-12T00:11:23.218Z,12.65
2022-09-12T00:13:50.992Z,12.69
2022-09-12T00:16:25.039Z,12.69
2022-09-12T00:18:53.714Z,12.67
2022-09-12T00:21:23.210Z,12.66
2022-09-12T00:23:51.585Z,12.64
2022-09-12T00:26:21.091Z,12.64
2022-09-12T00:28:49.786Z,12.59
2022-09-12T00:31:20.213Z,12.56
2022-09-12T00:33:48.112Z,12.59
2022-09-12T00:36:21.682Z,12.62
2022-09-12T00:38:50.985Z,12.63
2022-09-12T00:41:20.497Z,12.66
2022-09-12T00:43:52.048Z,12.66
2022-09-12T00:46:36.504Z,12.64
2022-09-12T00:49:24.739Z,12.59
2022-09-12T00:51:59.254Z,12.55
2022-09-12T00:54:30.813Z,12.54
2022-09-12T00:57:03.184Z,12.45
2022-09-12T01:00:01.939Z,12.43
2022-09-12T01:02:32.296Z,12.44
2022-09-12T01:05:00.591Z,12.41
2022-09-12T01:07:29.344Z,12.37
2022-09-12T01:09:57.239Z,12.34
2022-09-12T01:12:25.931Z,12.31
2022-09-12T01:14:53.642Z,12.28
2022-09-12T01:17:21.888Z,12.25
2022-09-12T01:20:11.442Z,12.23
2022-09-12T01:23:15.130Z,12.20
2022-09-12T01:25:59.477Z,12.17
2022-09-12T01:28:27.454Z,12.13
2022-09-12T01:31:38.801Z,12.10
2022-09-12T01:34:23.263Z,12.07
2022-09-12T01:37:04.840Z,12.08
2022-09-12T01:40:04.382Z,12.07
2022-09-12T01:42:47.250Z,12.07
2022-09-12T01:45:32.179Z,12.12
2022-09-12T01:48:11.129Z,12.14
2022-09-12T01:50:54.662Z,12.12
2022-09-12T01:53:36.860Z,12.12
2022-09-12T01:56:13.351Z,12.12
2022-09-12T01:58:56.452Z,12.11
2022-09-12T02:01:29.795Z,12.09
2022-09-12T02:04:00.487Z,12.06
2022-09-12T02:06:36.844Z,12.06
2022-09-12T02:09:11.195Z,12.11
2022-09-12T02:11:43.541Z,12.08
2022-09-12T02:14:28.821Z,12.05
2022-09-12T02:17:11.944Z,12.06
2022-09-12T02:20:06.207Z,12.06
2022-09-12T02:22:37.475Z,12.05
2022-09-12T02:25:09.523Z,11.97
2022-09-12T02:27:42.613Z,11.91
2022-09-12T02:30:12.955Z,11.92
2022-09-12T02:32:59.121Z,11.94
2022-09-12T02:35:45.243Z,11.97
2022-09-12T02:38:19.233Z,11.96
2022-09-12T02:40:47.186Z,11.96
2022-09-12T02:43:15.077Z,11.91
2022-09-12T02:45:43.063Z,11.88
2022-09-12T02:48:13.269Z,11.85
2022-09-12T02:50:42.273Z,11.87
2022-09-12T02:53:11.402Z,11.89
2022-09-12T02:55:41.300Z,11.83
2022-09-12T02:58:17.449Z,11.76
2022-09-12T03:00:54.545Z,11.79
2022-09-12T03:03:43.423Z,11.79
2022-09-12T03:06:23.647Z,11.76
2022-09-12T03:09:00.350Z,11.72
2022-09-12T03:11:40.392Z,11.75
2022-09-12T03:14:30.204Z,11.80
2022-09-12T03:17:19.076Z,11.80
2022-09-12T03:20:10.895Z,11.85
2022-09-12T03:22:51.034Z,11.87
2022-09-12T03:25:25.157Z,11.83
2022-09-12T03:28:12.265Z,11.79
2022-09-12T03:30:42.652Z,11.80
2022-09-12T03:33:15.702Z,11.82
2022-09-12T03:35:43.866Z,11.83
2022-09-12T03:38:11.868Z,11.80
2022-09-12T03:40:40.116Z,11.81
2022-09-12T03:43:09.418Z,11.83
2022-09-12T03:45:37.657Z,11.82
2022-09-12T03:48:06.397Z,11.81
2022-09-12T03:50:34.519Z,11.77
2022-09-12T03:53:03.523Z,11.74
2022-09-12T03:55:31.437Z,11.78
2022-09-12T03:57:59.511Z,11.78
2022-09-12T04:00:27.487Z,11.77
2022-09-12T04:02:57.204Z,11.74
2022-09-12T04:05:26.094Z,11.68
2022-09-12T04:07:54.167Z,11.69
2022-09-12T04:10:22.764Z,11.72
2022-09-12T04:12:51.660Z,11.73
2022-09-12T04:15:19.521Z,11.68
2022-09-12T04:17:47.245Z,11.68
2022-09-12T04:20:15.592Z,11.69
2022-09-12T04:22:43.341Z,11.72
2022-09-12T04:25:11.830Z,11.71
2022-09-12T04:27:40.008Z,11.68
2022-09-12T04:30:09.001Z,11.68
2022-09-12T04:32:36.869Z,11.67
2022-09-12T04:35:05.171Z,11.62
2022-09-12T04:37:32.915Z,11.58
2022-09-12T04:40:00.718Z,11.58
2022-09-12T04:42:29.851Z,11.59
2022-09-12T04:44:57.836Z,11.62
2022-09-12T04:47:25.579Z,11.64
2022-09-12T04:49:54.116Z,11.66
2022-09-12T04:52:21.991Z,11.68
2022-09-12T04:54:49.712Z,11.70
2022-09-12T04:57:17.438Z,11.68
2022-09-12T04:59:45.179Z,11.65
2022-09-12T05:02:13.103Z,11.68
2022-09-12T05:04:40.852Z,11.74
2022-09-12T05:07:08.593Z,11.76
2022-09-12T05:09:36.313Z,11.75
2022-09-12T05:12:05.848Z,11.76
2022-09-12T05:14:34.848Z,11.75
2022-09-12T05:17:04.649Z,11.73
2022-09-12T05:19:33.065Z,11.72
2022-09-12T05:22:00.853Z,11.73
2022-09-12T05:24:29.030Z,11.74
2022-09-12T05:26:56.890Z,11.74
2022-09-12T05:29:25.686Z,11.71
2022-09-12T05:31:53.964Z,11.69
2022-09-12T05:34:22.418Z,11.67
2022-09-12T05:36:50.228Z,11.70
2022-09-12T05:39:18.720Z,11.71
2022-09-12T05:41:47.698Z,11.75
2022-09-12T05:44:15.878Z,11.82
2022-09-12T05:46:46.719Z,11.85
2022-09-12T05:49:14.729Z,11.85
2022-09-12T05:51:45.361Z,11.82
2022-09-12T05:54:15.849Z,11.84
2022-09-12T05:56:44.793Z,11.87
2022-09-12T05:59:19.654Z,11.85
2022-09-12T06:01:48.856Z,11.83
2022-09-12T06:04:17.881Z,11.81
2022-09-12T06:06:46.413Z,11.82
2022-09-12T06:09:16.944Z,11.86
2022-09-12T06:11:46.367Z,11.84
2022-09-12T06:14:17.862Z,11.84
2022-09-12T06:16:47.414Z,11.88
2022-09-12T06:19:27.776Z,11.95
2022-09-12T06:21:55.580Z,12.00
2022-09-12T06:24:23.395Z,12.02
2022-09-12T06:26:52.919Z,12.07
2022-09-12T06:29:22.177Z,12.05
2022-09-12T06:31:50.045Z,12.04
2022-09-12T06:34:17.814Z,12.03
2022-09-12T06:36:47.945Z,12.07
2022-09-12T06:39:18.681Z,12.10
2022-09-12T06:41:48.495Z,12.14
2022-09-12T06:44:19.532Z,12.13
2022-09-12T06:46:48.022Z,12.14
2022-09-12T06:49:16.003Z,12.14
2022-09-12T06:51:44.694Z,12.16
2022-09-12T06:54:14.300Z,12.21
2022-09-12T06:56:42.413Z,12.28
2022-09-12T06:59:10.342Z,12.34
2022-09-12T07:01:38.390Z,12.43
2022-09-12T07:04:06.213Z,12.47
2022-09-12T07:06:40.715Z,12.45
2022-09-12T07:09:12.723Z,12.45
2022-09-12T07:11:42.485Z,12.45
2022-09-12T07:14:13.235Z,12.49
2022-09-12T07:16:41.266Z,12.52
2022-09-12T07:19:10.093Z,12.60
2022-09-12T07:21:40.459Z,12.63
2022-09-12T07:24:10.881Z,12.67
2022-09-12T07:26:40.696Z,12.68
2022-09-12T07:32:02.625Z,12.84
2022-09-12T07:34:30.429Z,12.88
2022-09-12T07:36:58.862Z,12.91
2022-09-12T07:39:26.604Z,12.92
2022-09-12T07:41:55.006Z,13.00
2022-09-12T07:44:23.095Z,12.98
2022-09-12T07:46:50.901Z,12.93
2022-09-12T07:49:18.626Z,12.92
2022-09-12T07:51:46.381Z,12.93
2022-09-12T07:54:14.157Z,12.96
2022-09-12T07:56:41.951Z,12.94
2022-09-12T07:59:09.709Z,12.94
2022-09-12T08:01:37.650Z,12.93
2022-09-12T08:04:05.951Z,12.91
2022-09-12T08:06:36.250Z,12.92
2022-09-12T08:09:05.803Z,12.93
2022-09-12T08:11:34.932Z,12.93
2022-09-12T08:14:05.819Z,12.97
2022-09-12T08:16:35.670Z,13.05
2022-09-12T08:19:04.350Z,13.10
2022-09-12T08:21:33.236Z,13.13
2022-09-12T08:24:04.292Z,13.13
2022-09-12T08:26:34.811Z,13.13
2022-09-12T08:29:02.584Z,13.11
2022-09-12T08:31:37.119Z,13.13
2022-09-12T08:34:06.612Z,13.16
2022-09-12T08:36:35.694Z,13.16
2022-09-12T08:39:06.980Z,13.17
2022-09-12T08:41:41.380Z,13.20
2022-09-12T08:44:27.997Z,13.26
2022-09-12T08:46:58.379Z,13.30
2022-09-12T08:49:42.445Z,13.30
2022-09-12T08:52:23.241Z,13.35
2022-09-12T08:54:51.480Z,13.39
2022-09-12T08:57:19.289Z,13.43
2022-09-12T08:59:48.485Z,13.49
2022-09-12T09:02:22.412Z,13.51
2022-09-12T09:04:56.812Z,13.55
2022-09-12T09:07:25.997Z,13.61
2022-09-12T09:10:19.606Z,13.68
2022-09-12T09:13:00.922Z,13.73
2022-09-12T09:15:41.270Z,13.76
2022-09-12T09:18:32.195Z,13.75
2022-09-12T09:21:06.322Z,13.81
2022-09-12T09:23:40.395Z,13.83
2022-09-12T09:26:14.920Z,13.93
2022-09-12T09:28:49.559Z,14.00
2022-09-12T09:31:19.838Z,14.04
2022-09-12T09:33:55.224Z,14.06
2022-09-12T09:36:41.490Z,14.07
2022-09-12T09:39:34.648Z,14.15
2022-09-12T09:42:27.183Z,14.24
2022-09-12T09:45:00.354Z,14.31
2022-09-12T09:47:28.469Z,14.31
2022-09-12T09:49:56.204Z,14.27
2022-09-12T09:52:30.962Z,14.28
2022-09-12T09:55:01.891Z,14.24
2022-09-12T09:57:35.819Z,14.17
2022-09-12T10:00:27.241Z,14.18
2022-09-12T10:03:13.803Z,14.20
2022-09-12T10:05:49.089Z,14.18
2022-09-12T10:08:26.386Z,14.20
2022-09-12T10:11:27.148Z,14.26
2022-09-12T10:13:57.171Z,14.28
2022-09-12T10:16:49.102Z,14.30
2022-09-12T10:19:26.138Z,14.29
2022-09-12T10:21:56.304Z,14.30
2022-09-12T10:24:47.312Z,14.28
2022-09-12T10:27:20.578Z,14.24
2022-09-12T10:30:18.330Z,14.24
2022-09-12T10:32:52.450Z,14.26
2022-09-12T10:35:22.407Z,14.30
2022-09-12T10:38:02.650Z,14.35
2022-09-12T10:40:40.070Z,14.39
2022-09-12T10:43:42.404Z,14.44
2022-09-12T10:46:19.430Z,14.50
2022-09-12T10:48:49.362Z,14.52
2022-09-12T10:51:26.245Z,14.56
2022-09-12T10:54:05.812Z,14.63
2022-09-12T10:56:43.651Z,14.63
2022-09-12T10:59:38.874Z,14.65
2022-09-12T11:02:21.879Z,14.64
2022-09-12T11:05:11.946Z,14.66
2022-09-12T11:07:46.916Z,14.68
2022-09-12T11:10:54.500Z,14.71
2022-09-12T11:13:55.886Z,14.77
2022-09-12T11:16:48.350Z,14.84
2022-09-12T11:19:41.323Z,14.87
2022-09-12T11:22:21.845Z,14.91
2022-09-12T11:25:14.585Z,14.99
2022-09-12T11:27:48.271Z,15.03
2022-09-12T11:30:18.109Z,15.03
2022-09-12T11:33:09.310Z,15.00
2022-09-12T11:35:49.792Z,14.99
2022-09-12T11:38:23.924Z,14.99
2022-09-12T11:41:14.569Z,15.05
2022-09-12T11:43:49.021Z,15.02
2022-09-12T11:46:32.531Z,14.99
2022-09-12T11:49:09.189Z,14.99
2022-09-12T11:51:46.576Z,14.99
2022-09-12T11:54:32.869Z,15.00
2022-09-12T11:57:12.894Z,14.97
2022-09-12T11:59:47.896Z,14.97
2022-09-12T12:02:29.760Z,15.03
2022-09-12T12:05:24.222Z,15.04
2022-09-12T12:07:59.662Z,15.11
2022-09-12T12:10:38.497Z,15.16
2022-09-12T12:13:15.318Z,15.16
2022-09-12T12:15:50.560Z,15.17
2022-09-12T12:18:29.323Z,15.17
2022-09-12T12:21:21.338Z,15.13
2022-09-12T12:24:07.101Z,15.10
2022-09-12T12:26:40.751Z,15.10
2022-09-12T12:29:17.798Z,15.15
2022-09-12T12:32:03.977Z,15.22
2022-09-12T12:34:38.188Z,15.25
2022-09-12T12:37:19.387Z,15.25
2022-09-12T12:40:01.406Z,15.26
2022-09-12T12:42:32.723Z,15.32
2022-09-12T12:45:03.922Z,15.36
2022-09-12T12:47:39.415Z,15.37
2022-09-12T12:50:10.098Z,15.38
2022-09-12T12:52:54.863Z,15.39
2022-09-12T12:55:31.305Z,15.40
2022-09-12T12:58:01.394Z,15.41
2022-09-12T13:00:36.222Z,15.38
2022-09-12T13:03:06.754Z,15.36
2022-09-12T13:05:57.558Z,15.40
2022-09-12T13:08:31.601Z,15.41
2022-09-12T13:11:03.216Z,15.38
2022-09-12T13:13:38.865Z,15.36
2022-09-12T13:16:09.477Z,15.39
2022-09-12T13:18:40.545Z,15.39
2022-09-12T13:21:12.978Z,15.41
2022-09-12T13:23:42.039Z,15.45
2022-09-12T13:26:23.294Z,15.46
2022-09-12T13:29:08.576Z,15.50
2022-09-12T13:31:37.520Z,15.60
2022-09-12T13:34:08.139Z,15.66
2022-09-12T13:37:13.315Z,15.65
2022-09-12T13:40:12.347Z,15.68
2022-09-12T13:42:53.876Z,15.80
2022-09-12T13:45:24.885Z,15.84
2022-09-12T13:47:58.979Z,15.82
2022-09-12T13:50:31.976Z,15.77
2022-09-12T13:53:03.919Z,15.79
2022-09-12T13:55:39.647Z,15.80
2022-09-12T13:58:21.546Z,15.86
2022-09-12T14:01:12.077Z,15.95
2022-09-12T14:04:01.686Z,16.04
2022-09-12T14:06:46.651Z,16.14
2022-09-12T14:09:24.958Z,16.26
2022-09-12T14:11:53.792Z,16.34
2022-09-12T14:14:34.455Z,16.40
2022-09-12T14:17:31.641Z,16.41
2022-09-12T14:20:03.789Z,16.43
2022-09-12T14:22:34.043Z,16.49
2022-09-12T14:25:02.830Z,16.49
2022-09-12T14:27:45.757Z,16.50
2022-09-12T14:30:27.227Z,16.51
2022-09-12T14:33:10.421Z,16.53
2022-09-12T14:35:49.686Z,16.54
2022-09-12T14:38:22.563Z,16.60
2022-09-12T14:41:10.858Z,16.59
2022-09-12T14:43:44.294Z,16.64
2022-09-12T14:46:21.767Z,16.74
2022-09-12T14:48:54.286Z,16.83
2022-09-12T14:51:32.470Z,16.84
2022-09-12T14:54:00.858Z,16.81
2022-09-12T14:56:43.974Z,16.78
2022-09-12T14:59:33.631Z,16.81
2022-09-12T15:02:13.687Z,16.85
2022-09-12T15:04:44.458Z,16.85
2022-09-12T15:07:32.614Z,16.84
2022-09-12T15:10:16.929Z,16.81
2022-09-12T15:12:45.195Z,16.77
2022-09-12T15:15:14.686Z,16.68
2022-09-12T15:17:42.520Z,16.63
2022-09-12T15:20:11.044Z,16.61
2022-09-12T15:22:40.501Z,16.56
2022-09-12T15:25:10.817Z,16.51
2022-09-12T15:27:40.939Z,16.54
2022-09-12T15:30:10.463Z,16.58
2022-09-12T15:32:38.407Z,16.60
2022-09-12T15:35:19.673Z,16.56
2022-09-12T15:37:48.810Z,16.50
2022-09-12T15:40:17.560Z,16.46
2022-09-12T15:42:45.424Z,16.49
2022-09-12T15:45:24.503Z,16.50
2022-09-12T15:47:52.194Z,16.52
2022-09-12T15:50:20.185Z,16.53
2022-09-12T15:52:48.105Z,16.56
2022-09-12T15:55:22.535Z,16.56
2022-09-12T15:57:50.562Z,16.47
2022-09-12T16:00:18.887Z,16.43
2022-09-12T16:02:50.143Z,16.40
2022-09-12T16:05:25.149Z,16.37
2022-09-12T16:07:54.713Z,16.33
2022-09-12T16:41:55.607Z,14.24
2022-09-12T16:44:23.310Z,14.33
2022-09-12T16:46:51.186Z,14.49
2022-09-12T16:49:18.969Z,14.68
2022-09-12T16:51:47.696Z,14.86
2022-09-12T16:54:15.861Z,14.99
2022-09-12T16:56:43.905Z,15.15
2022-09-12T16:59:16.186Z,15.27
2022-09-12T17:01:45.296Z,15.34
2022-09-12T17:04:13.256Z,15.40
2022-09-12T17:06:42.058Z,15.44
2022-09-12T17:09:11.555Z,15.51
2022-09-12T17:11:39.636Z,15.60
2022-09-12T17:14:09.060Z,15.66
2022-09-12T17:16:50.794Z,15.69
2022-09-12T17:19:23.339Z,15.74
2022-09-12T17:21:51.141Z,15.78
2022-09-12T17:24:20.377Z,15.79
2022-09-12T17:26:48.230Z,15.74
2022-09-12T17:29:16.844Z,15.68
2022-09-12T17:31:45.459Z,15.63
2022-09-12T17:34:14.687Z,15.58
2022-09-12T17:36:48.334Z,15.60
2022-09-12T17:39:16.401Z,15.61
2022-09-12T17:41:45.805Z,15.61
2022-09-12T17:45:27.492Z,15.59
2022-09-12T17:47:55.236Z,15.54
2022-09-12T17:50:39.496Z,15.50
2022-09-12T17:53:08.968Z,15.48
2022-09-12T17:55:39.488Z,15.49
2022-09-12T17:58:07.939Z,15.52
2022-09-12T18:00:54.658Z,15.49
2022-09-12T18:03:23.344Z,15.45
2022-09-12T18:05:55.995Z,15.46
2022-09-12T18:08:24.588Z,15.52
2022-09-12T18:10:52.784Z,15.53
2022-09-12T18:13:20.448Z,15.46
2022-09-12T18:15:48.149Z,15.43
2022-09-12T18:18:15.920Z,15.43
2022-09-12T18:20:50.490Z,15.47
2022-09-12T18:23:18.188Z,15.40
2022-09-12T18:25:45.829Z,15.31
2022-09-12T18:28:13.533Z,15.28
2022-09-12T18:30:41.532Z,15.24
2022-09-12T18:33:09.230Z,15.19
2022-09-12T18:35:38.636Z,15.12
2022-09-12T18:38:06.309Z,15.10
2022-09-12T18:40:33.974Z,15.09
2022-09-12T18:43:01.644Z,15.04
2022-09-12T18:45:29.380Z,15.01
2022-09-12T18:47:57.968Z,15.11
2022-09-12T18:50:25.781Z,15.21
2022-09-12T18:52:57.828Z,15.23
2022-09-12T18:55:27.500Z,15.31
2022-09-12T18:57:55.633Z,15.36
2022-09-12T19:00:23.312Z,15.35
2022-09-12T19:02:51.031Z,15.34
2022-09-12T19:05:18.714Z,15.26
2022-09-12T19:07:46.429Z,15.22
2022-09-12T19:10:14.147Z,15.17
2022-09-12T19:12:41.835Z,15.18
2022-09-12T19:15:09.849Z,15.24
2022-09-12T19:17:37.636Z,15.26
2022-09-12T19:20:06.022Z,15.31
2022-09-12T19:22:33.885Z,15.36
2022-09-12T19:25:01.608Z,15.40
2022-09-12T19:27:29.264Z,15.33
2022-09-12T19:29:57.237Z,15.28
2022-09-12T19:32:24.903Z,15.27
2022-09-12T19:34:52.576Z,15.15
2022-09-12T19:37:20.251Z,15.02
2022-09-12T19:39:47.964Z,14.96
2022-09-12T19:42:15.690Z,14.93
2022-09-12T19:44:43.616Z,14.87
2022-09-12T19:47:11.388Z,14.87
2022-09-12T19:49:39.052Z,14.90
2022-09-12T19:52:06.724Z,14.90
2022-09-12T19:55:19.884Z,14.77
2022-09-12T19:57:47.641Z,14.61
2022-09-12T20:00:15.539Z,14.61
2022-09-12T20:02:43.391Z,14.66
2022-09-12T20:05:12.111Z,14.70
2022-09-12T20:07:40.219Z,14.68
2022-09-12T20:10:08.592Z,14.65
2022-09-12T20:12:36.563Z,14.53
2022-09-12T20:15:05.393Z,14.36
2022-09-12T20:17:34.866Z,14.21
2022-09-12T20:20:04.195Z,14.12
2022-09-12T20:22:36.763Z,14.14
2022-09-12T20:25:08.143Z,14.17
2022-09-12T20:27:36.581Z,14.20
2022-09-12T20:30:05.487Z,14.20
2022-09-12T20:32:34.045Z,14.04
2022-09-12T20:35:02.742Z,13.87
2022-09-12T20:37:31.221Z,13.78
2022-09-12T20:39:59.404Z,13.79
2022-09-12T20:42:29.517Z,13.80
2022-09-12T20:44:57.388Z,13.71
2022-09-12T20:47:25.701Z,13.65
2022-09-12T20:49:55.393Z,13.60
2022-09-12T20:52:23.521Z,13.59
2022-09-12T20:54:52.304Z,13.55
2022-09-12T20:57:20.135Z,13.47
2022-09-12T20:59:48.301Z,13.44
2022-09-12T21:02:16.558Z,13.35
2022-09-12T21:04:44.668Z,13.30
2022-09-12T21:07:12.450Z,13.31
2022-09-12T21:09:40.211Z,13.31
2022-09-12T21:12:08.121Z,13.32
2022-09-12T21:14:36.012Z,13.34
2022-09-12T21:17:05.353Z,13.33
2022-09-12T21:22:41.097Z,13.30
2022-09-12T21:25:09.175Z,13.27
2022-09-12T21:27:37.291Z,13.13
2022-09-12T21:30:06.243Z,13.00
2022-09-12T21:32:37.065Z,12.93
2022-09-12T21:35:06.084Z,12.92
2022-09-12T21:37:35.181Z,12.90
2022-09-12T21:40:03.554Z,12.84
2022-09-12T21:42:31.953Z,12.73
2022-09-12T21:44:59.757Z,12.68
2022-09-12T21:47:27.532Z,12.74
2022-09-12T21:49:55.969Z,12.75
2022-09-12T21:52:23.838Z,12.65
2022-09-12T21:54:51.933Z,12.56
2022-09-12T21:57:19.785Z,12.48
2022-09-12T21:59:47.655Z,12.43
2022-09-12T22:02:16.094Z,12.35
2022-09-12T22:04:44.116Z,12.28
2022-09-12T22:07:12.651Z,12.28
2022-09-12T22:09:40.676Z,12.28
2022-09-12T22:12:08.852Z,12.28
2022-09-12T22:14:37.136Z,12.33
2022-09-12T22:17:05.954Z,12.34
2022-09-12T22:19:34.433Z,12.34
2022-09-12T22:22:20.936Z,12.28
2022-09-12T22:24:48.742Z,12.28
2022-09-12T22:27:17.191Z,12.28
2022-09-12T22:29:46.159Z,12.21
2022-09-12T22:32:14.036Z,12.13
2022-09-12T22:34:41.901Z,12.05
2022-09-12T22:37:12.131Z,11.96
2022-09-12T22:39:40.765Z,11.90
2022-09-12T22:42:09.845Z,11.87
2022-09-12T22:44:37.634Z,11.82
2022-09-12T22:47:05.586Z,11.82
2022-09-12T22:49:33.553Z,11.85
2022-09-12T22:52:01.500Z,11.88
2022-09-12T22:54:29.790Z,11.89
2022-09-12T22:56:57.571Z,11.85
2022-09-12T22:59:25.361Z,11.79
2022-09-12T23:01:53.188Z,11.70
2022-09-12T23:04:21.149Z,11.71
2022-09-12T23:06:49.546Z,11.70
2022-09-12T23:09:17.415Z,11.67
2022-09-12T23:11:46.124Z,11.71
2022-09-12T23:14:14.206Z,11.68
2022-09-12T23:16:42.053Z,11.59
2022-09-12T23:19:10.002Z,11.51
2022-09-12T23:21:37.775Z,11.45
2022-09-12T23:24:05.576Z,11.40
2022-09-12T23:26:34.152Z,11.34
2022-09-12T23:29:02.729Z,11.27
2022-09-12T23:31:32.609Z,11.26
2022-09-12T23:34:03.279Z,11.32
2022-09-12T23:36:31.882Z,11.33
2022-09-12T23:39:00.029Z,11.27
2022-09-12T23:41:28.126Z,11.23
2022-09-12T23:43:56.222Z,11.25
2022-09-12T23:46:24.645Z,11.22
2022-09-12T23:48:53.515Z,11.14
2022-09-12T23:51:22.190Z,11.07
2022-09-12T23:53:50.048Z,11.09
2022-09-12T23:56:18.146Z,11.14
2022-09-12T23:58:46.133Z,11.17
